Time;durP1;ratioP1;P1;durP2;ratioP2;P2;SDS_P1;SDS_P2;PMS_P1;PMS_P2;Temp;Humidity;BMP_temperature;BMP_pressure;BME280_temperature;BME280_humidity;BME280_pressure;Samples;Min_cycle;Max_cycle;Signal;HPM_P1;HPM_P2
2021/09/16 02:01:28;;;;;;;61.80;56.20;;;;;;;17.30;91.32;98581.66;111281;1202;61867;-83
2021/09/16 02:03:55;;;;;;;59.70;54.30;;;;;;;17.30;91.37;98575.70;111318;1202;62554;-84
2021/09/16 02:06:22;;;;;;;60.50;55.00;;;;;;;17.31;91.36;98575.50;111281;1202;66712;-85
2021/09/16 02:08:50;;;;;;;56.10;50.50;;;;;;;17.29;91.33;98572.99;111318;1202;61924;-84
2021/09/16 02:11:16;;;;;;;58.90;53.00;;;;;;;17.27;91.41;98568.63;111276;1202;62591;-85
2021/09/16 02:13:43;;;;;;;46.80;42.20;;;;;;;17.27;91.39;98567.23;111315;1202;62001;-84
2021/09/16 02:16:09;;;;;;;43.80;39.20;;;;;;;17.27;91.35;98566.71;111231;1202;61869;-84
2021/09/16 02:18:36;;;;;;;43.80;39.40;;;;;;;17.25;91.49;98565.25;111451;1202;65533;-84
2021/09/16 02:21:03;;;;;;;42.00;37.60;;;;;;;17.24;91.63;98565.91;111516;1202;61879;-84
2021/09/16 02:23:30;;;;;;;41.70;37.40;;;;;;;17.22;91.57;98561.83;111607;1202;63970;-83
2021/09/16 02:25:56;;;;;;;41.40;37.00;;;;;;;17.19;91.59;98564.41;111461;1202;61796;-83
2021/09/16 02:28:23;;;;;;;41.10;36.80;;;;;;;17.18;91.62;98569.29;111265;1199;61793;-83
2021/09/16 02:30:49;;;;;;;41.40;36.70;;;;;;;17.16;91.69;98568.70;111253;1202;68084;-84
2021/09/16 02:33:16;;;;;;;40.80;36.60;;;;;;;17.15;91.74;98567.92;111309;1202;61852;-83
2021/09/16 02:35:43;;;;;;;42.70;38.20;;;;;;;17.13;91.67;98564.58;111320;1202;63871;-83
2021/09/16 02:38:09;;;;;;;41.60;36.60;;;;;;;17.11;91.69;98565.04;111305;1202;61965;-83
2021/09/16 02:40:36;;;;;;;41.60;37.30;;;;;;;17.09;91.84;98565.05;111294;1202;61828;-84
2021/09/16 02:43:03;;;;;;;43.60;38.90;;;;;;;17.08;91.86;98561.98;111328;1195;66732;-83
2021/09/16 02:45:29;;;;;;;42.80;38.20;;;;;;;17.07;91.96;98561.13;111298;1202;61854;-83
2021/09/16 02:47:56;;;;;;;42.30;37.30;;;;;;;17.06;91.91;98558.25;111262;1202;64998;-84
2021/09/16 02:50:22;;;;;;;42.50;37.90;;;;;;;17.05;92.02;98555.95;111335;1202;61911;-83
2021/09/16 02:52:49;;;;;;;43.60;38.10;;;;;;;17.04;92.15;98557.33;111330;1196;61896;-83
2021/09/16 02:55:18;;;;;;;42.70;37.90;;;;;;;17.02;92.32;98559.19;111278;1195;67730;-84
2021/09/16 02:57:46;;;;;;;43.20;38.80;;;;;;;16.99;92.28;98558.36;111278;1202;61846;-83
2021/09/16 03:00:14;;;;;;;40.00;35.70;;;;;;;16.97;92.32;98560.98;111279;1202;64674;-83
2021/09/16 03:02:41;;;;;;;43.00;38.30;;;;;;;16.95;92.39;98564.89;111291;1202;61882;-83
2021/09/16 03:05:08;;;;;;;40.90;36.40;;;;;;;16.94;92.38;98567.70;111285;1202;61863;-83
2021/09/16 03:07:35;;;;;;;38.40;34.40;;;;;;;16.93;92.36;98568.73;111266;1202;66482;-83
2021/09/16 03:10:03;;;;;;;39.40;35.40;;;;;;;16.92;92.52;98570.63;111323;1202;61896;-83
2021/09/16 03:12:30;;;;;;;39.20;35.00;;;;;;;16.90;92.49;98569.95;111290;1202;63629;-83
2021/09/16 03:14:57;;;;;;;39.70;35.60;;;;;;;16.88;92.56;98569.93;111309;1202;62337;-83
2021/09/16 03:17:23;;;;;;;40.00;35.70;;;;;;;16.87;92.54;98572.50;111231;1198;61869;-84
2021/09/16 03:19:50;;;;;;;39.30;35.10;;;;;;;16.86;92.61;98572.37;111287;1198;67441;-84
2021/09/16 03:22:17;;;;;;;40.20;36.10;;;;;;;16.86;92.72;98569.88;111214;1202;61860;-83
2021/09/16 03:24:43;;;;;;;41.50;36.90;;;;;;;16.87;92.75;98572.65;111314;1202;62552;-82
2021/09/16 03:27:10;;;;;;;41.10;36.70;;;;;;;16.88;92.85;98575.85;111271;1202;61898;-83
2021/09/16 03:29:36;;;;;;;42.40;37.80;;;;;;;16.87;92.87;98579.10;111304;1195;61910;-83
2021/09/16 03:32:04;;;;;;;40.60;36.50;;;;;;;16.88;92.89;98574.95;111283;1202;75492;-84
2021/09/16 03:34:30;;;;;;;40.90;36.70;;;;;;;16.88;92.67;98576.33;111277;1202;61851;-84
2021/09/16 03:36:57;;;;;;;40.40;36.30;;;;;;;16.90;92.81;98574.05;111288;1202;65015;-84
2021/09/16 03:39:23;;;;;;;41.80;37.40;;;;;;;16.91;92.81;98572.38;111295;1202;61895;-83
2021/09/16 03:41:50;;;;;;;38.80;34.70;;;;;;;16.89;92.92;98574.04;111358;1202;61875;-83
2021/09/16 03:44:17;;;;;;;39.70;35.40;;;;;;;16.88;92.90;98575.59;111344;1202;65535;-83
2021/09/16 03:46:43;;;;;;;37.30;33.50;;;;;;;16.89;92.92;98575.21;111243;1202;61872;-83
2021/09/16 03:49:10;;;;;;;38.70;34.70;;;;;;;16.88;93.00;98576.50;111296;1202;64782;-83
2021/09/16 03:51:37;;;;;;;39.80;35.50;;;;;;;16.89;92.95;98574.85;111255;1196;61904;-83
2021/09/16 03:54:03;;;;;;;37.90;33.90;;;;;;;16.89;93.05;98572.16;111278;1200;61800;-83
2021/09/16 03:56:30;;;;;;;38.00;33.90;;;;;;;16.88;93.06;98569.34;111285;1195;67426;-83
2021/09/16 03:58:57;;;;;;;36.00;32.50;;;;;;;16.87;93.18;98564.77;111294;1196;61783;-83
2021/09/16 04:01:23;;;;;;;37.70;33.30;;;;;;;16.85;93.13;98565.57;111314;1202;62639;-84
2021/09/16 04:03:50;;;;;;;36.10;32.40;;;;;;;16.82;93.18;98567.42;111289;1202;61866;-84
2021/09/16 04:06:17;;;;;;;40.20;36.00;;;;;;;16.81;93.25;98567.40;111255;1198;61974;-84
2021/09/16 04:08:43;;;;;;;40.50;36.30;;;;;;;16.81;93.37;98564.21;111343;1202;65635;-83
2021/09/16 04:11:10;;;;;;;39.00;34.80;;;;;;;16.80;93.46;98568.75;111305;1196;61776;-83
2021/09/16 04:13:37;;;;;;;38.50;34.40;;;;;;;16.79;93.48;98571.15;111290;1202;64649;-82
2021/09/16 04:16:04;;;;;;;38.80;34.70;;;;;;;16.78;93.50;98570.88;111302;1202;61969;-85
2021/09/16 04:18:30;;;;;;;36.80;33.00;;;;;;;16.78;93.62;98566.60;111402;1202;61955;-83
2021/09/16 04:20:57;;;;;;;39.30;35.00;;;;;;;16.77;93.66;98568.84;111328;1202;67694;-82
2021/09/16 04:23:24;;;;;;;38.00;33.80;;;;;;;16.77;93.59;98569.01;111343;1202;61847;-86
2021/09/16 04:25:50;;;;;;;39.00;35.10;;;;;;;16.78;93.64;98568.41;111292;1202;64806;-85
2021/09/16 04:28:17;;;;;;;39.90;35.80;;;;;;;16.80;93.62;98564.77;111320;1202;61844;-83
2021/09/16 04:30:44;;;;;;;38.80;34.80;;;;;;;16.82;93.62;98564.23;111295;1202;61896;-84
2021/09/16 04:33:10;;;;;;;38.60;34.70;;;;;;;16.84;93.76;98566.13;111292;1202;65452;-84
2021/09/16 04:35:37;;;;;;;38.10;34.40;;;;;;;16.86;93.78;98567.19;111312;1202;61831;-83
2021/09/16 04:38:03;;;;;;;37.70;33.80;;;;;;;16.87;93.71;98567.89;111296;1202;63872;-83
2021/09/16 04:40:30;;;;;;;40.10;35.80;;;;;;;16.87;93.68;98563.88;111293;1202;61904;-83
2021/09/16 04:42:57;;;;;;;40.00;35.90;;;;;;;16.89;93.71;98563.30;111277;1202;62486;-83
2021/09/16 04:45:23;;;;;;;51.40;46.10;;;;;;;16.93;93.90;98560.97;111326;1202;66776;-83
2021/09/16 04:47:50;;;;;;;46.70;41.70;;;;;;;16.95;93.75;98561.11;111322;1202;61889;-84
2021/09/16 04:50:16;;;;;;;47.60;42.60;;;;;;;16.97;93.68;98560.39;111260;1202;62614;-83
2021/09/16 04:52:43;;;;;;;44.00;39.40;;;;;;;16.99;93.68;98565.26;111252;1198;61976;-83
2021/09/16 04:55:10;;;;;;;41.00;36.50;;;;;;;17.01;93.76;98571.86;111325;1202;61886;-83
2021/09/16 04:57:37;;;;;;;38.90;34.80;;;;;;;17.02;93.83;98573.49;111288;1195;66777;-83
2021/09/16 05:00:05;;;;;;;36.60;33.00;;;;;;;17.04;93.93;98572.77;111318;1202;61959;-83
2021/09/16 05:02:31;;;;;;;42.60;38.00;;;;;;;17.05;94.06;98571.38;111303;1202;62389;-82
2021/09/16 05:04:58;;;;;;;49.90;44.10;;;;;;;17.07;94.06;98573.39;111282;1202;61831;-82
2021/09/16 05:07:24;;;;;;;40.50;36.30;;;;;;;17.08;94.07;98579.75;111326;1202;61912;-82
2021/09/16 05:09:51;;;;;;;40.50;36.20;;;;;;;17.10;94.10;98583.30;111302;1202;66833;-82
2021/09/16 05:12:18;;;;;;;38.10;34.40;;;;;;;17.11;94.21;98586.63;111305;1202;61899;-82
2021/09/16 05:14:44;;;;;;;39.30;35.30;;;;;;;17.11;94.19;98586.58;111339;1202;62305;-82
2021/09/16 05:17:11;;;;;;;40.10;35.90;;;;;;;17.14;94.24;98587.11;111263;1195;61885;-82
2021/09/16 05:19:38;;;;;;;38.60;34.60;;;;;;;17.16;94.28;98586.01;111366;1202;61904;-81
2021/09/16 05:22:04;;;;;;;42.50;38.00;;;;;;;17.18;94.39;98587.40;111294;1202;67712;-82
2021/09/16 05:24:31;;;;;;;42.90;38.30;;;;;;;17.21;94.39;98586.36;111332;1202;61837;-82
2021/09/16 05:26:59;;;;;;;39.20;35.00;;;;;;;17.24;94.40;98583.83;111250;1196;63877;-82
2021/09/16 05:29:25;;;;;;;38.90;34.80;;;;;;;17.28;94.49;98590.80;111290;1202;61891;-82
2021/09/16 05:31:52;;;;;;;38.00;34.00;;;;;;;17.30;94.34;98593.65;111299;1196;61802;-82
2021/09/16 05:34:19;;;;;;;37.80;34.10;;;;;;;17.33;94.27;98592.63;111344;1202;75483;-82
2021/09/16 05:36:45;;;;;;;37.00;33.20;;;;;;;17.41;94.40;98589.96;111349;1202;61838;-82
2021/09/16 05:39:12;;;;;;;38.70;34.90;;;;;;;17.49;94.42;98588.88;111278;1202;64418;-82
2021/09/16 05:41:38;;;;;;;45.00;40.10;;;;;;;17.58;94.39;98587.63;111305;1202;61945;-82
2021/09/16 05:44:05;;;;;;;42.20;37.40;;;;;;;17.67;94.22;98585.58;111270;1202;61861;-82
2021/09/16 05:46:33;;;;;;;40.70;36.50;;;;;;;17.78;94.10;98591.72;111292;1202;65469;-82
2021/09/16 05:48:59;;;;;;;39.90;35.70;;;;;;;17.85;94.00;98593.85;111339;1202;61862;-82
2021/09/16 05:51:26;;;;;;;40.60;35.30;;;;;;;17.93;93.77;98593.36;111286;1202;63944;-81
2021/09/16 05:53:53;;;;;;;40.00;35.30;;;;;;;18.03;93.53;98591.13;111269;1202;61866;-82
2021/09/16 05:56:19;;;;;;;47.30;39.40;;;;;;;18.16;93.45;98584.35;111325;1202;61876;-81
2021/09/16 05:58:46;;;;;;;50.00;43.60;;;;;;;18.30;93.05;98582.85;111330;1202;66819;-82
2021/09/16 06:01:12;;;;;;;52.80;44.30;;;;;;;18.39;92.62;98582.77;111321;1202;61862;-83
2021/09/16 06:03:39;;;;;;;50.70;44.30;;;;;;;18.48;92.24;98585.98;111230;1203;63889;-82
2021/09/16 06:06:06;;;;;;;51.90;44.70;;;;;;;18.56;91.90;98587.62;111291;1202;61920;-82
2021/09/16 06:08:32;;;;;;;54.20;43.40;;;;;;;18.67;91.86;98589.20;111297;1202;61863;-82
2021/09/16 06:10:59;;;;;;;48.40;41.70;;;;;;;18.77;91.74;98584.52;111292;1202;66638;-82
2021/09/16 06:13:26;;;;;;;47.10;42.00;;;;;;;18.87;91.41;98585.41;111292;1202;61844;-83
2021/09/16 06:15:53;;;;;;;45.80;39.10;;;;;;;18.98;91.16;98586.56;111314;1195;73672;-83
2021/09/16 06:18:19;;;;;;;40.60;36.30;;;;;;;19.09;90.97;98587.40;111314;1200;61939;-83
2021/09/16 06:20:46;;;;;;;42.00;37.60;;;;;;;19.21;90.68;98582.85;111342;1203;61915;-83
2021/09/16 06:23:13;;;;;;;41.40;36.80;;;;;;;19.32;90.47;98586.38;111277;1198;66637;-82
2021/09/16 06:25:39;;;;;;;40.90;36.60;;;;;;;19.40;90.32;98584.48;111257;1202;61787;-83
2021/09/16 06:28:06;;;;;;;41.30;37.20;;;;;;;19.48;90.32;98583.30;111311;1202;62812;-83
2021/09/16 06:30:32;;;;;;;39.40;35.30;;;;;;;19.53;90.15;98584.92;111266;1204;61866;-83
2021/09/16 06:32:59;;;;;;;39.00;35.10;;;;;;;19.58;90.01;98587.01;111274;1204;61885;-82
2021/09/16 06:35:26;;;;;;;40.00;35.40;;;;;;;19.63;89.99;98590.25;111260;1202;66780;-83
2021/09/16 06:37:53;;;;;;;38.50;34.70;;;;;;;19.68;89.92;98593.71;111349;1202;61873;-82
2021/09/16 06:40:19;;;;;;;37.60;33.90;;;;;;;19.73;89.93;98600.73;111320;1202;62691;-82
2021/09/16 06:42:46;;;;;;;40.90;36.20;;;;;;;19.79;89.76;98603.68;111245;1205;61926;-82
2021/09/16 06:45:13;;;;;;;40.10;36.00;;;;;;;19.85;89.69;98607.65;111279;1203;61898;-82
2021/09/16 06:47:40;;;;;;;39.00;35.10;;;;;;;19.92;89.67;98608.77;111293;1203;67730;-82
2021/09/16 06:50:07;;;;;;;38.90;34.70;;;;;;;19.98;89.49;98607.53;111348;1203;61902;-81
2021/09/16 06:52:33;;;;;;;37.20;33.30;;;;;;;20.06;89.41;98604.58;111273;1203;63993;-82
2021/09/16 06:55:00;;;;;;;34.50;31.10;;;;;;;20.16;89.24;98606.91;111306;1204;62035;-82
2021/09/16 06:57:27;;;;;;;33.80;30.40;;;;;;;20.25;89.04;98607.66;111252;1198;61837;-82
2021/09/16 06:59:53;;;;;;;31.90;28.60;;;;;;;20.34;88.54;98605.37;111269;1195;66499;-82
2021/09/16 07:02:20;;;;;;;31.30;28.10;;;;;;;20.42;88.36;98603.98;111318;1205;61900;-82
2021/09/16 07:04:47;;;;;;;31.00;27.90;;;;;;;20.51;88.37;98608.38;111358;1195;62600;-82
2021/09/16 07:07:13;;;;;;;29.70;26.70;;;;;;;20.58;88.29;98616.86;111277;1200;61952;-82
2021/09/16 07:09:40;;;;;;;28.40;25.50;;;;;;;20.66;88.15;98615.19;111358;1202;61825;-82
2021/09/16 07:12:07;;;;;;;29.90;26.70;;;;;;;20.72;87.76;98611.77;111263;1205;67713;-83
2021/09/16 07:14:33;;;;;;;30.90;26.90;;;;;;;20.76;87.15;98612.20;111322;1198;61850;-82
2021/09/16 07:17:01;;;;;;;52.80;28.40;;;;;;;20.79;86.81;98612.04;111317;1202;64714;-82
2021/09/16 07:19:28;;;;;;;36.10;27.30;;;;;;;20.86;86.69;98608.11;111289;1204;61916;-84
2021/09/16 07:21:55;;;;;;;28.90;25.90;;;;;;;20.98;86.55;98611.29;111307;1195;61827;-82
2021/09/16 07:24:22;;;;;;;27.20;24.30;;;;;;;21.09;86.10;98614.55;111259;1203;66594;-82
2021/09/16 07:26:51;;;;;;;27.20;24.40;;;;;;;21.17;85.47;98615.50;111374;1200;61895;-87
2021/09/16 07:29:21;;;;;;;27.60;24.80;;;;;;;21.30;85.03;98620.02;113205;1195;63233;-86
2021/09/16 07:31:49;;;;;;;25.90;23.40;;;;;;;21.46;84.86;98617.38;113593;1202;61802;-88
2021/09/16 07:34:18;;;;;;;27.10;24.40;;;;;;;21.63;84.67;98618.67;111822;1196;61869;-89
2021/09/16 07:36:46;;;;;;;27.00;24.20;;;;;;;21.82;84.34;98619.65;111854;1202;65433;-86
2021/09/16 07:39:16;;;;;;;25.30;22.50;;;;;;;22.00;83.92;98621.08;112117;1202;61822;-90
2021/09/16 07:41:43;;;;;;;24.40;22.20;;;;;;;22.18;83.60;98624.25;111612;1202;62592;-91
2021/09/16 07:44:10;;;;;;;24.80;22.20;;;;;;;22.36;83.18;98625.63;111591;1195;61789;-87
2021/09/16 07:46:37;;;;;;;24.20;21.50;;;;;;;22.58;83.00;98628.00;111259;1200;61850;-89
2021/09/16 07:49:04;;;;;;;23.20;20.90;;;;;;;22.82;82.33;98626.74;111372;1204;66790;-89
2021/09/16 07:51:31;;;;;;;24.10;20.90;;;;;;;23.00;81.29;98629.30;111306;1202;61884;-86
2021/09/16 07:53:58;;;;;;;21.70;19.60;;;;;;;23.14;80.31;98631.77;111344;1203;62586;-84
2021/09/16 07:56:25;;;;;;;22.60;19.70;;;;;;;23.18;79.49;98636.83;111278;1195;61988;-85
2021/09/16 07:58:51;;;;;;;20.90;18.70;;;;;;;23.25;79.18;98635.27;111285;1198;61880;-85
2021/09/16 08:01:18;;;;;;;21.40;19.20;;;;;;;23.38;79.15;98634.77;111307;1203;65362;-86
2021/09/16 08:03:45;;;;;;;21.70;19.50;;;;;;;23.52;78.81;98634.45;111284;1202;61882;-85
2021/09/16 08:06:12;;;;;;;21.20;19.00;;;;;;;23.65;78.46;98624.98;111314;1202;62781;-85
2021/09/16 08:08:39;;;;;;;21.40;19.20;;;;;;;23.78;78.25;98625.20;111297;1202;61907;-85
2021/09/16 08:11:06;;;;;;;21.70;19.40;;;;;;;23.85;77.77;98627.98;111274;1200;61907;-85
2021/09/16 08:13:33;;;;;;;21.60;18.80;;;;;;;23.93;77.43;98629.17;111305;1202;66785;-85
2021/09/16 08:15:59;;;;;;;21.50;19.10;;;;;;;23.96;76.94;98626.48;111288;1195;61818;-85
2021/09/16 08:18:26;;;;;;;21.30;19.30;;;;;;;24.01;76.90;98626.56;111271;1202;62610;-85
2021/09/16 08:20:53;;;;;;;19.60;17.60;;;;;;;24.07;76.78;98627.20;111325;1199;61901;-85
2021/09/16 08:23:22;;;;;;;18.80;16.90;;;;;;;24.18;76.33;98629.32;111284;1202;61876;-85
2021/09/16 08:25:49;;;;;;;19.60;17.70;;;;;;;24.29;76.24;98628.52;111397;1202;66485;-85
2021/09/16 08:28:17;;;;;;;19.10;17.30;;;;;;;24.42;75.68;98630.41;111335;1202;61885;-85
2021/09/16 08:30:45;;;;;;;19.60;17.70;;;;;;;24.49;75.23;98631.60;111272;1202;62601;-85
2021/09/16 08:33:14;;;;;;;18.30;16.50;;;;;;;24.59;75.04;98635.42;111308;1202;61799;-85
2021/09/16 08:35:42;;;;;;;17.70;15.90;;;;;;;24.69;74.63;98632.97;111299;1195;61803;-85
2021/09/16 08:38:09;;;;;;;16.30;14.60;;;;;;;24.76;74.53;98632.76;111339;1202;65457;-85
2021/09/16 08:40:36;;;;;;;16.90;15.10;;;;;;;24.79;73.69;98636.92;111292;1202;61857;-85
2021/09/16 08:43:04;;;;;;;14.90;13.60;;;;;;;24.78;73.65;98637.11;111377;1202;63907;-85
2021/09/16 08:45:31;;;;;;;14.50;13.10;;;;;;;24.70;73.19;98635.90;111307;1195;61863;-84
2021/09/16 08:47:58;;;;;;;13.50;12.10;;;;;;;24.66;73.20;98636.17;111341;1195;61866;-84
2021/09/16 08:50:27;;;;;;;13.40;12.20;;;;;;;24.63;72.71;98641.77;111286;1202;65431;-84
2021/09/16 08:52:53;;;;;;;13.30;12.00;;;;;;;24.62;72.61;98645.30;111378;1202;61991;-84
2021/09/16 08:55:22;;;;;;;14.70;11.70;;;;;;;24.55;72.24;98642.15;111321;1195;63779;-84
2021/09/16 08:58:01;;;;;;;18.70;12.60;;;;;;;24.47;71.97;98639.09;111313;1200;61885;-84
2021/09/16 09:00:30;;;;;;;13.80;11.70;;;;;;;24.43;72.02;98641.64;111313;1197;61825;-84
2021/09/16 09:02:57;;;;;;;13.70;12.30;;;;;;;24.40;72.20;98644.05;111340;1202;65423;-84
2021/09/16 09:05:29;;;;;;;14.70;12.30;;;;;;;24.32;72.18;98646.00;111307;1202;61911;-84
2021/09/16 09:08:02;;;;;;;16.30;12.90;;;;;;;24.27;72.33;98646.06;111270;1202;63949;-84
2021/09/16 09:10:44;;;;;;;13.40;12.10;;;;;;;24.23;72.63;98645.95;111268;1203;61840;-84
2021/09/16 09:13:17;;;;;;;13.40;12.20;;;;;;;24.21;72.78;98648.15;111287;1196;61865;-84
2021/09/16 09:15:46;;;;;;;14.80;12.50;;;;;;;24.18;72.72;98647.83;111335;1202;66836;-84
2021/09/16 09:18:16;;;;;;;14.90;13.20;;;;;;;24.14;72.61;98653.55;111274;1202;61872;-84
2021/09/16 09:20:57;;;;;;;15.10;12.70;;;;;;;24.12;72.90;98654.34;111314;1202;65014;-84
2021/09/16 09:23:37;;;;;;;14.40;12.80;;;;;;;24.16;72.67;98654.08;111124;1202;61979;-84
2021/09/16 09:26:30;;;;;;;13.90;12.40;;;;;;;24.16;72.28;98649.16;111228;1202;61809;-84
2021/09/16 09:29:17;;;;;;;13.80;11.80;;;;;;;24.17;72.01;98647.08;111291;1202;65456;-84
2021/09/16 09:31:53;;;;;;;13.10;11.90;;;;;;;24.20;72.17;98646.14;111305;1202;61859;-84
2021/09/16 09:34:24;;;;;;;15.60;12.30;;;;;;;24.26;72.24;98646.80;111295;1202;64042;-84
2021/09/16 09:36:52;;;;;;;13.40;12.00;;;;;;;24.28;72.19;98645.20;111343;1195;61896;-84
2021/09/16 09:39:26;;;;;;;13.90;12.50;;;;;;;24.27;72.31;98649.63;111308;1200;61801;-84
2021/09/16 09:41:53;;;;;;;13.60;12.40;;;;;;;24.19;72.40;98649.73;111278;1202;65444;-84
2021/09/16 09:44:20;;;;;;;14.10;12.80;;;;;;;24.04;72.42;98654.19;111284;1202;61776;-84
2021/09/16 09:46:52;;;;;;;15.30;12.60;;;;;;;23.88;72.71;98652.51;111277;1202;64710;-84
2021/09/16 09:49:25;;;;;;;14.20;12.70;;;;;;;23.74;73.11;98646.32;111313;1198;61879;-84
2021/09/16 09:51:57;;;;;;;14.40;13.00;;;;;;;23.63;73.49;98647.08;111305;1200;61888;-84
2021/09/16 09:54:40;;;;;;;14.80;13.00;;;;;;;23.49;73.86;98647.72;111315;1202;67604;-88
2021/09/16 09:57:14;;;;;;;14.70;13.30;;;;;;;23.34;74.19;98647.92;111391;1196;61830;-91
2021/09/16 10:00:03;;;;;;;15.30;13.90;;;;;;;23.24;74.69;98651.98;111236;1196;63987;-84
2021/09/16 10:02:40;;;;;;;15.00;13.60;;;;;;;23.11;75.47;98652.05;111313;1200;62015;-84
2021/09/16 10:05:24;;;;;;;15.60;14.10;;;;;;;23.02;75.79;98655.38;111238;1205;61883;-84
2021/09/16 10:07:51;;;;;;;15.10;13.20;;;;;;;22.92;76.30;98652.59;111324;1204;67749;-84
2021/09/16 10:10:19;;;;;;;15.50;13.90;;;;;;;22.89;76.75;98647.33;111282;1204;61760;-84
2021/09/16 10:12:47;;;;;;;15.90;14.30;;;;;;;22.91;77.00;98648.59;111232;1203;62528;-84
2021/09/16 10:15:18;;;;;;;20.70;15.10;;;;;;;22.96;77.16;98648.68;111290;1198;61935;-84
2021/09/16 10:17:46;;;;;;;15.30;13.30;;;;;;;23.02;77.54;98647.09;111268;1200;61985;-84
2021/09/16 10:20:19;;;;;;;15.90;14.20;;;;;;;23.07;77.80;98642.31;111318;1204;65425;-84
2021/09/16 10:22:52;;;;;;;17.00;15.30;;;;;;;23.16;78.09;98637.52;111282;1195;61969;-84
2021/09/16 10:25:22;;;;;;;16.10;14.50;;;;;;;23.32;78.05;98637.89;111276;1203;64115;-84
2021/09/16 10:28:01;;;;;;;17.40;14.50;;;;;;;23.49;78.06;98632.41;111326;1203;61876;-84
2021/09/16 10:30:31;;;;;;;15.30;13.90;;;;;;;23.66;78.16;98627.55;111318;1200;61966;-84
2021/09/16 10:33:14;;;;;;;15.20;13.70;;;;;;;23.80;78.02;98632.30;111332;1204;66641;-84
2021/09/16 10:35:42;;;;;;;15.50;13.90;;;;;;;23.90;78.05;98632.39;111293;1204;61905;-84
2021/09/16 10:38:29;;;;;;;15.20;13.70;;;;;;;24.00;78.12;98628.52;111287;1203;62788;-84
2021/09/16 10:41:25;;;;;;;17.30;15.00;;;;;;;24.13;78.05;98627.79;111504;1204;61863;-86
2021/09/16 10:43:51;;;;;;;17.40;15.60;;;;;;;24.25;77.93;98629.46;111686;1195;61799;-86
2021/09/16 10:46:29;;;;;;;19.20;17.40;;;;;;;24.30;77.68;98628.03;111430;1203;66661;-85
2021/09/16 10:49:17;;;;;;;17.20;15.50;;;;;;;24.37;77.60;98622.12;111743;1204;62564;-85
2021/09/16 10:51:44;;;;;;;17.60;15.90;;;;;;;24.54;77.58;98615.32;111694;1204;63897;-86
2021/09/16 10:54:56;;;;;;;18.00;16.30;;;;;;;24.70;77.18;98611.55;111293;1199;61952;-85
2021/09/16 10:57:35;;;;;;;17.20;15.30;;;;;;;24.85;76.67;98612.63;111276;1199;61850;-90
2021/09/16 11:00:08;;;;;;;17.50;15.80;;;;;;;24.95;76.03;98619.39;111322;1205;66783;-89
2021/09/16 11:02:46;;;;;;;18.00;16.40;;;;;;;24.96;75.76;98620.52;111317;1203;61891;-86
2021/09/16 11:05:15;;;;;;;17.50;16.00;;;;;;;25.07;75.95;98616.00;111297;1204;63804;-86
2021/09/16 11:07:42;;;;;;;;;;;;;;;25.27;75.65;98615.06;111313;1204;61864;-86
2021/09/16 11:10:15;;;;;;;17.50;16.00;;;;;;;25.45;75.00;98613.64;111328;1204;61866;-86
2021/09/16 11:12:50;;;;;;;17.30;15.70;;;;;;;25.57;74.64;98613.73;111339;1195;66834;-86
2021/09/16 11:15:23;;;;;;;17.50;15.80;;;;;;;25.77;74.42;98607.11;111287;1203;62016;-86
2021/09/16 11:17:50;;;;;;;17.60;16.10;;;;;;;26.03;74.08;98597.50;111316;1203;62596;-86
2021/09/16 11:20:20;;;;;;;17.80;16.00;;;;;;;26.14;73.50;98593.67;111301;1200;61854;-87
2021/09/16 11:22:50;;;;;;;17.70;16.00;;;;;;;26.05;72.19;98591.38;111311;1198;61908;-86
2021/09/16 11:25:16;;;;;;;18.30;16.30;;;;;;;25.96;71.77;98590.50;111266;1203;66854;-86
2021/09/16 11:27:43;;;;;;;17.90;16.00;;;;;;;25.96;71.67;98586.29;111277;1203;61842;-85
2021/09/16 11:30:16;;;;;;;18.50;16.70;;;;;;;26.06;71.77;98584.15;111295;1204;63635;-85
2021/09/16 11:32:44;;;;;;;17.80;16.00;;;;;;;26.16;71.17;98583.50;111302;1203;61834;-85
2021/09/16 11:35:13;;;;;;;18.40;16.60;;;;;;;26.19;70.56;98583.48;111239;1197;61790;-85
2021/09/16 11:37:41;;;;;;;17.90;16.30;;;;;;;26.26;70.27;98581.74;111341;1203;66839;-85
2021/09/16 11:40:12;;;;;;;18.00;16.10;;;;;;;26.37;69.99;98578.23;111324;1203;61878;-85
2021/09/16 11:42:42;;;;;;;19.00;15.60;;;;;;;26.49;69.58;98577.32;111369;1202;62656;-85
2021/09/16 11:45:14;;;;;;;16.40;15.00;;;;;;;26.49;68.86;98575.58;111314;1203;61892;-85
2021/09/16 11:48:00;;;;;;;16.60;15.00;;;;;;;26.56;69.21;98570.16;111408;1200;61896;-85
2021/09/16 11:50:37;;;;;;;17.00;15.20;;;;;;;26.53;67.81;98566.21;111284;1204;68085;-85
2021/09/16 11:53:28;;;;;;;17.70;16.10;;;;;;;26.35;66.45;98561.42;111321;1203;61808;-85
2021/09/16 11:56:01;;;;;;;19.90;17.70;;;;;;;26.16;66.77;98558.24;111235;1205;62624;-85
2021/09/16 11:58:31;;;;;;;18.60;16.90;;;;;;;26.12;67.36;98555.31;111312;1195;61859;-86
2021/09/16 12:01:13;;;;;;;17.40;15.80;;;;;;;26.18;67.35;98554.38;111355;1195;61834;-86
2021/09/16 12:03:42;;;;;;;16.00;14.70;;;;;;;26.23;67.50;98552.42;111375;1202;66814;-85
2021/09/16 12:06:14;;;;;;;17.40;16.00;;;;;;;26.27;67.72;98550.02;111287;1202;61799;-86
2021/09/16 12:08:45;;;;;;;15.40;13.80;;;;;;;26.26;67.81;98556.66;111271;1196;62755;-85
2021/09/16 12:11:17;;;;;;;16.60;14.50;;;;;;;26.22;67.79;98559.70;111243;1200;61839;-85
2021/09/16 12:14:04;;;;;;;15.10;13.70;;;;;;;26.18;67.46;98558.99;111332;1197;61896;-85
2021/09/16 12:16:34;;;;;;;14.90;13.70;;;;;;;26.10;66.87;98558.25;111276;1204;68203;-85
2021/09/16 12:19:08;;;;;;;15.00;13.70;;;;;;;25.98;66.47;98557.82;111339;1203;61872;-85
2021/09/16 12:21:38;;;;;;;16.10;14.30;;;;;;;25.85;67.01;98557.44;111281;1202;63959;-85
2021/09/16 12:24:08;;;;;;;15.40;14.00;;;;;;;25.78;67.51;98556.38;111377;1196;61879;-86
2021/09/16 12:26:42;;;;;;;;;;;;;;;25.70;67.81;98560.16;111307;1197;61889;-86
2021/09/16 12:29:14;;;;;;;30.90;27.90;;;;;;;25.61;67.96;98559.83;111344;1203;67788;-86
2021/09/16 12:31:57;;;;;;;24.10;21.80;;;;;;;25.52;68.16;98560.25;111360;1203;61840;-85
2021/09/16 12:34:28;;;;;;;20.10;18.30;;;;;;;25.40;68.49;98561.50;111292;1202;63997;-86
2021/09/16 12:36:56;;;;;;;17.10;15.50;;;;;;;25.26;68.55;98561.91;111275;1202;61858;-85
2021/09/16 12:39:24;;;;;;;16.00;14.40;;;;;;;25.13;68.49;98561.33;111330;1195;61892;-86
2021/09/16 12:41:54;;;;;;;18.10;14.70;;;;;;;24.96;68.66;98557.95;111322;1203;65436;-86
2021/09/16 12:44:28;;;;;;;;;;;;;;;24.81;69.41;98558.30;111345;1204;61901;-85
2021/09/16 12:47:05;;;;;;;14.50;13.20;;;;;;;24.68;69.60;98559.34;111311;1204;63884;-86
2021/09/16 12:49:48;;;;;;;17.20;13.80;;;;;;;24.59;69.84;98550.88;111268;1203;62432;-86
2021/09/16 12:52:26;;;;;;;16.10;14.50;;;;;;;24.55;70.31;98545.54;111344;1202;61847;-85
2021/09/16 12:54:55;;;;;;;17.50;13.90;;;;;;;24.52;70.48;98540.80;111224;1202;66827;-87
2021/09/16 12:57:24;;;;;;;16.50;14.00;;;;;;;24.51;70.67;98540.13;111214;1202;61854;-87
2021/09/16 12:59:54;;;;;;;17.50;15.90;;;;;;;24.50;70.93;98535.70;111010;1204;63988;-84
2021/09/16 13:02:30;;;;;;;20.50;17.80;;;;;;;24.50;71.17;98537.05;111280;1198;61872;-84
2021/09/16 13:05:02;;;;;;;28.00;23.20;;;;;;;24.48;71.49;98535.87;111285;1202;61779;-84
2021/09/16 13:07:35;;;;;;;21.40;19.10;;;;;;;24.42;71.41;98533.18;111324;1203;67761;-85
2021/09/16 13:10:06;;;;;;;16.70;15.20;;;;;;;24.33;71.63;98533.13;111360;1202;61799;-85
2021/09/16 13:12:34;;;;;;;16.40;15.00;;;;;;;24.19;71.56;98531.77;111318;1195;62415;-85
2021/09/16 13:15:02;;;;;;;16.40;14.70;;;;;;;24.05;71.74;98529.89;111321;1203;61860;-85
2021/09/16 13:17:30;;;;;;;16.30;14.80;;;;;;;23.89;72.02;98531.21;111325;1197;61799;-87
2021/09/16 13:19:56;;;;;;;19.40;15.20;;;;;;;23.72;72.34;98528.98;111321;1203;67704;-85